Alma Center, Wisconsin
Current Conditions -  °F | °C
As of 7:35 PM on Monday 20 Oct 2014 (Local Time) from KBCK Reporting Station
Overcast Overcast  
Wind Chill:   Ceiling: 4400
Heat Index:   Visibility: 10mi
Dew Point:   Wind: 0mph
Humidity: 67%   Direction: NA
Pressure: 30.03"   Gusts: NA
Location:  44.44°N, 90.91°W
Report Text: KBCK 210035Z AUTO 00000KT 10SM OVC044 10/04 A3003 RMK AO2 T00950037
Loading
Personal Weather Stations






























Interactive Weather Map New forecast layout! Learn more

10-Day Weather Forecast

Advertisements
Track Severe Weather on mobile